createdAt,value
2019-01-26T00:01:45.900Z,43.27
2019-01-26T00:04:14.482Z,37.87
2019-01-26T00:06:43.306Z,44.37
2019-01-26T00:09:12.039Z,39.60
2019-01-26T00:11:41.014Z,36.00
2019-01-26T00:14:10.402Z,32.50
2019-01-26T00:16:39.374Z,32.73
2019-01-26T00:19:08.256Z,28.30
2019-01-26T00:21:37.045Z,28.87
2019-01-26T00:24:05.668Z,29.27
2019-01-26T00:26:36.316Z,28.83
2019-01-26T00:29:04.622Z,28.93
2019-01-26T00:31:33.266Z,29.53
2019-01-26T00:34:02.035Z,25.33
2019-01-26T00:36:30.798Z,28.80
2019-01-26T00:38:59.830Z,27.75
2019-01-26T00:41:28.574Z,29.30
2019-01-26T00:43:59.126Z,25.93
2019-01-26T00:46:28.546Z,27.00
2019-01-26T00:48:57.709Z,29.97
2019-01-26T00:51:27.308Z,30.03
2019-01-26T00:53:56.842Z,28.93
2019-01-26T00:56:26.586Z,31.07
2019-01-26T00:58:55.541Z,30.23
2019-01-26T01:01:24.245Z,29.40
2019-01-26T01:03:53.538Z,24.53
2019-01-26T01:06:25.962Z,29.18
2019-01-26T01:08:52.777Z,26.83
2019-01-26T01:11:22.082Z,27.00
2019-01-26T01:13:50.870Z,25.37
2019-01-26T01:16:19.720Z,25.97
2019-01-26T01:18:48.338Z,28.43
2019-01-26T01:21:17.010Z,26.43
2019-01-26T01:23:45.779Z,22.70
2019-01-26T01:26:14.670Z,24.63
2019-01-26T01:28:43.293Z,22.40
2019-01-26T01:31:11.861Z,27.87
2019-01-26T01:33:41.173Z,24.57
2019-01-26T01:36:10.001Z,22.93
2019-01-26T01:38:38.870Z,22.67
2019-01-26T01:41:08.090Z,21.53
2019-01-26T01:43:38.133Z,21.10
2019-01-26T01:46:08.058Z,21.43
2019-01-26T01:48:36.839Z,20.87
2019-01-26T01:51:05.724Z,18.03
2019-01-26T01:53:34.297Z,19.63
2019-01-26T01:56:02.993Z,17.98
2019-01-26T01:58:31.781Z,15.30
2019-01-26T02:01:00.654Z,15.87
2019-01-26T02:03:29.397Z,17.37
2019-01-26T02:05:58.177Z,15.60
2019-01-26T02:08:27.991Z,14.77
2019-01-26T02:10:56.807Z,16.57
2019-01-26T02:13:25.386Z,15.70
2019-01-26T02:15:53.958Z,13.57
2019-01-26T02:18:22.542Z,14.90
2019-01-26T02:20:51.099Z,14.47
2019-01-26T02:23:19.678Z,13.07
2019-01-26T02:25:48.268Z,13.03
2019-01-26T02:28:18.144Z,14.68
2019-01-26T02:30:46.729Z,13.97
2019-01-26T02:33:15.296Z,12.67
2019-01-26T02:35:43.896Z,12.70
2019-01-26T02:38:12.462Z,11.80
2019-01-26T02:40:41.030Z,13.70
2019-01-26T02:43:09.603Z,13.67
2019-01-26T02:45:38.175Z,11.40
2019-01-26T02:48:07.090Z,13.90
2019-01-26T02:50:36.455Z,12.30
2019-01-26T02:53:05.048Z,12.03
2019-01-26T02:55:33.830Z,14.47
2019-01-26T02:58:02.397Z,11.33
2019-01-26T03:00:30.957Z,12.37
2019-01-26T03:02:59.600Z,15.10
2019-01-26T03:05:28.170Z,11.57
2019-01-26T03:07:56.720Z,13.03
2019-01-26T03:10:25.309Z,8.77
2019-01-26T03:12:54.198Z,9.00
2019-01-26T03:15:23.671Z,9.93
2019-01-26T03:17:52.249Z,9.87
2019-01-26T03:20:20.822Z,10.03
2019-01-26T03:22:49.376Z,9.77
2019-01-26T03:25:17.962Z,8.53
2019-01-26T03:27:46.531Z,13.20
2019-01-26T03:30:17.533Z,10.43
2019-01-26T03:32:46.085Z,9.80
2019-01-26T03:35:14.666Z,9.10
2019-01-26T03:37:43.284Z,9.67
2019-01-26T03:40:12.759Z,11.00
2019-01-26T03:42:41.333Z,11.03
2019-01-26T03:45:10.782Z,10.33
2019-01-26T03:47:39.346Z,8.60
2019-01-26T03:50:09.289Z,7.70
2019-01-26T03:52:37.852Z,8.75
2019-01-26T03:55:07.850Z,9.07
2019-01-26T03:57:36.486Z,10.90
2019-01-26T04:00:07.919Z,9.57
2019-01-26T04:02:36.478Z,9.23
2019-01-26T04:05:05.800Z,8.77
2019-01-26T04:07:36.033Z,8.28
2019-01-26T04:10:05.116Z,8.37
2019-01-26T04:12:33.722Z,8.37
2019-01-26T04:15:02.295Z,8.13
2019-01-26T04:17:30.843Z,9.07
2019-01-26T04:19:59.415Z,7.72
2019-01-26T04:22:28.054Z,8.17
2019-01-26T04:24:56.620Z,8.20
2019-01-26T04:27:25.178Z,6.97
2019-01-26T04:29:55.054Z,6.45
2019-01-26T04:32:23.690Z,5.20
2019-01-26T04:34:52.258Z,7.40
2019-01-26T04:37:20.845Z,7.33
2019-01-26T04:39:49.414Z,5.90
2019-01-26T04:42:18.027Z,6.40
2019-01-26T04:44:46.658Z,7.10
2019-01-26T04:47:15.224Z,5.30
2019-01-26T04:49:43.790Z,4.93
2019-01-26T04:52:14.026Z,6.15
2019-01-26T04:54:42.648Z,5.23
2019-01-26T04:57:11.218Z,6.13
2019-01-26T04:59:39.790Z,5.70
2019-01-26T05:02:08.349Z,5.50
2019-01-26T05:04:36.905Z,5.85
2019-01-26T05:07:05.481Z,7.53
2019-01-26T05:09:34.061Z,7.33
2019-01-26T05:12:02.646Z,5.57
2019-01-26T05:14:31.196Z,6.10
2019-01-26T05:16:59.760Z,6.03
2019-01-26T05:19:29.243Z,7.03
2019-01-26T05:21:57.818Z,5.63
2019-01-26T05:24:26.514Z,5.37
2019-01-26T05:26:55.078Z,6.15
2019-01-26T05:29:23.643Z,5.87
2019-01-26T05:31:52.228Z,7.25
2019-01-26T05:34:20.802Z,5.93
2019-01-26T05:36:49.340Z,5.37
2019-01-26T05:39:17.904Z,7.33
2019-01-26T05:41:47.171Z,6.20
2019-01-26T05:44:15.765Z,6.47
2019-01-26T05:46:44.329Z,7.83
2019-01-26T05:49:12.916Z,8.38
2019-01-26T05:51:41.469Z,6.73
2019-01-26T05:54:10.034Z,7.83
2019-01-26T05:56:38.607Z,5.80
2019-01-26T05:59:07.203Z,8.25
2019-01-26T06:01:35.777Z,9.63
2019-01-26T06:04:04.370Z,10.83
2019-01-26T06:06:32.947Z,8.80
2019-01-26T06:09:01.519Z,8.00
2019-01-26T06:11:30.091Z,8.48
2019-01-26T06:13:58.670Z,8.60
2019-01-26T06:16:27.243Z,9.95
2019-01-26T06:18:55.815Z,8.80
2019-01-26T06:21:24.388Z,9.28
2019-01-26T06:23:52.974Z,11.17
2019-01-26T06:26:22.194Z,12.40
2019-01-26T06:28:50.762Z,10.70
2019-01-26T06:31:19.317Z,12.07
2019-01-26T06:33:47.878Z,11.85
2019-01-26T06:36:16.462Z,13.67
2019-01-26T06:38:45.021Z,11.43
2019-01-26T06:41:13.678Z,14.07
2019-01-26T06:43:42.246Z,12.43
2019-01-26T06:46:10.823Z,13.67
2019-01-26T06:48:39.385Z,11.40
2019-01-26T06:51:08.007Z,13.33
2019-01-26T06:53:36.585Z,12.87
2019-01-26T06:56:05.174Z,12.13
2019-01-26T06:58:33.716Z,11.00
2019-01-26T07:01:02.302Z,11.90
2019-01-26T07:03:30.869Z,11.70
2019-01-26T07:06:14.549Z,10.80
2019-01-26T07:08:43.139Z,13.07
2019-01-26T07:11:11.714Z,12.43
2019-01-26T07:13:40.271Z,10.93
2019-01-26T07:16:08.926Z,12.75
2019-01-26T07:18:37.498Z,12.23
2019-01-26T07:21:06.121Z,13.53
2019-01-26T07:23:34.694Z,13.43
2019-01-26T07:26:03.266Z,12.20
2019-01-26T07:28:31.849Z,12.70
2019-01-26T07:31:00.447Z,10.90
2019-01-26T07:33:29.134Z,14.30
2019-01-26T07:36:01.794Z,14.50
2019-01-26T07:38:32.089Z,12.58
2019-01-26T07:41:00.738Z,12.37
2019-01-26T07:43:29.344Z,12.17
2019-01-26T07:45:58.178Z,14.03
2019-01-26T07:48:29.129Z,13.95
2019-01-26T07:50:57.675Z,11.93
2019-01-26T07:53:28.253Z,14.07
2019-01-26T07:55:58.333Z,12.10
2019-01-26T07:58:27.643Z,15.50
2019-01-26T08:00:56.489Z,13.73
2019-01-26T08:03:25.223Z,13.67
2019-01-26T08:05:54.960Z,13.43
2019-01-26T08:08:23.819Z,12.20
2019-01-26T08:10:53.913Z,14.17
2019-01-26T08:13:23.556Z,18.20
2019-01-26T08:15:52.828Z,21.50
2019-01-26T08:18:24.216Z,18.10
2019-01-26T08:20:53.387Z,14.93
2019-01-26T08:23:22.157Z,15.50
2019-01-26T08:25:52.086Z,15.53
2019-01-26T08:28:21.222Z,12.07
2019-01-26T08:30:50.104Z,13.67
2019-01-26T08:33:18.743Z,12.70
2019-01-26T08:35:47.713Z,12.03
2019-01-26T08:38:18.933Z,13.05
2019-01-26T08:40:50.378Z,13.73
2019-01-26T08:43:22.948Z,14.13
2019-01-26T08:45:53.052Z,12.97
2019-01-26T08:48:21.712Z,12.53
2019-01-26T08:50:50.486Z,13.70
2019-01-26T08:53:21.331Z,13.23
2019-01-26T08:55:49.890Z,12.67
2019-01-26T08:58:18.678Z,13.43
2019-01-26T09:00:47.643Z,12.37
2019-01-26T09:03:37.821Z,14.27
2019-01-26T09:06:09.732Z,16.03
2019-01-26T09:08:38.446Z,15.27
2019-01-26T09:11:08.237Z,11.83
2019-01-26T09:13:37.301Z,10.50
2019-01-26T09:16:07.446Z,13.37
2019-01-26T09:18:38.868Z,11.07
2019-01-26T09:21:06.414Z,11.47
2019-01-26T09:23:34.978Z,9.93
2019-01-26T09:26:03.586Z,9.77
2019-01-26T09:28:32.245Z,9.87
2019-01-26T09:31:00.810Z,9.67
2019-01-26T09:33:29.381Z,8.90
2019-01-26T09:35:58.118Z,11.48
2019-01-26T09:38:26.684Z,8.10
2019-01-26T09:40:55.267Z,7.00
2019-01-26T09:43:23.829Z,8.07
2019-01-26T09:45:52.411Z,6.67
2019-01-26T09:48:21.002Z,6.60
2019-01-26T09:50:49.561Z,5.13
2019-01-26T09:53:18.129Z,6.30
2019-01-26T09:55:46.693Z,6.23
2019-01-26T09:58:16.207Z,5.73
2019-01-26T10:00:44.791Z,6.43
2019-01-26T10:03:13.365Z,8.60
2019-01-26T10:05:41.942Z,6.37
2019-01-26T10:08:10.525Z,4.67
2019-01-26T10:10:42.254Z,4.93
2019-01-26T10:13:10.832Z,4.37
2019-01-26T10:15:39.410Z,5.67
2019-01-26T10:18:07.986Z,5.97
2019-01-26T10:20:38.046Z,5.93
2019-01-26T10:23:06.723Z,5.47
2019-01-26T10:25:35.291Z,5.23
2019-01-26T10:28:04.100Z,3.57
2019-01-26T10:30:38.404Z,4.23
2019-01-26T10:33:07.046Z,4.83
2019-01-26T10:36:03.951Z,4.07
2019-01-26T10:38:34.749Z,3.77
2019-01-26T10:41:40.141Z,3.83
2019-01-26T10:44:10.043Z,4.17
2019-01-26T10:46:38.802Z,5.70
2019-01-26T10:49:07.403Z,3.98
2019-01-26T10:51:35.957Z,5.43
2019-01-26T10:54:05.403Z,5.27
2019-01-26T10:56:34.046Z,3.97
2019-01-26T10:59:02.669Z,6.03
2019-01-26T11:01:31.229Z,4.63
2019-01-26T11:03:59.805Z,4.93
2019-01-26T11:06:28.395Z,4.62
2019-01-26T11:08:56.969Z,6.17
2019-01-26T11:11:25.554Z,6.00
2019-01-26T11:13:54.166Z,5.73
2019-01-26T11:16:22.793Z,4.47
2019-01-26T11:18:51.374Z,4.50
2019-01-26T11:21:19.952Z,3.83
2019-01-26T11:23:54.530Z,6.00
2019-01-26T11:26:23.113Z,5.10
2019-01-26T11:28:54.332Z,5.00
2019-01-26T11:31:25.133Z,5.10
2019-01-26T11:33:54.731Z,6.77
2019-01-26T11:36:24.009Z,8.07
2019-01-26T11:38:52.648Z,10.20
2019-01-26T11:41:21.247Z,11.10
2019-01-26T11:43:49.813Z,9.47
2019-01-26T11:46:24.726Z,10.30
2019-01-26T11:48:54.773Z,10.87
2019-01-26T11:51:40.218Z,8.97
2019-01-26T11:54:08.807Z,10.77
2019-01-26T11:56:44.138Z,7.50
2019-01-26T11:59:14.118Z,10.47
2019-01-26T12:02:13.798Z,9.07
2019-01-26T12:05:13.477Z,9.23
2019-01-26T12:07:42.106Z,9.80
2019-01-26T12:10:11.590Z,9.80
2019-01-26T12:12:40.153Z,8.93
2019-01-26T12:15:11.937Z,8.40
2019-01-26T12:17:40.678Z,9.17
2019-01-26T12:20:11.875Z,9.23
2019-01-26T12:22:40.452Z,8.87
2019-01-26T12:25:10.370Z,8.25
2019-01-26T12:27:38.931Z,8.27
2019-01-26T12:30:09.283Z,9.20
2019-01-26T12:32:37.870Z,8.67
2019-01-26T12:35:08.599Z,7.77
2019-01-26T12:37:37.256Z,11.10
2019-01-26T12:40:06.270Z,10.00
2019-01-26T12:42:35.100Z,6.40
2019-01-26T12:45:04.011Z,7.23
2019-01-26T12:47:32.611Z,6.47
2019-01-26T12:50:02.341Z,9.13
2019-01-26T12:52:32.094Z,6.55
2019-01-26T12:55:00.657Z,7.50
2019-01-26T12:57:29.234Z,8.00
2019-01-26T12:59:57.812Z,7.37
2019-01-26T13:02:26.963Z,6.87
2019-01-26T13:04:56.553Z,6.70
2019-01-26T13:07:25.278Z,6.73
2019-01-26T13:09:53.869Z,8.63
2019-01-26T13:12:22.435Z,6.63
2019-01-26T13:14:51.014Z,8.57
2019-01-26T13:17:19.585Z,9.17
2019-01-26T13:19:48.162Z,8.03
2019-01-26T13:22:16.742Z,8.57
2019-01-26T13:24:45.330Z,7.50
2019-01-26T13:27:13.902Z,8.80
2019-01-26T13:29:42.673Z,8.47
2019-01-26T13:32:11.458Z,8.27
2019-01-26T13:34:40.102Z,11.20
2019-01-26T13:37:09.022Z,7.70
2019-01-26T13:39:37.604Z,7.60
2019-01-26T13:42:06.214Z,7.53
2019-01-26T13:44:34.785Z,7.13
2019-01-26T13:47:03.338Z,7.80
2019-01-26T13:49:31.930Z,7.58
2019-01-26T13:52:00.515Z,6.37
2019-01-26T13:54:29.095Z,8.93
2019-01-26T13:56:57.660Z,7.00
2019-01-26T13:59:26.246Z,8.47
2019-01-26T14:01:54.818Z,6.73
2019-01-26T14:04:23.389Z,6.53
2019-01-26T14:06:51.955Z,5.50
2019-01-26T14:09:20.533Z,6.60
2019-01-26T14:11:49.091Z,7.40
2019-01-26T14:14:17.661Z,6.70
2019-01-26T14:16:46.245Z,6.87
2019-01-26T14:19:14.813Z,8.37
2019-01-26T14:21:43.414Z,7.87
2019-01-26T14:24:11.984Z,7.50
2019-01-26T14:26:40.608Z,7.00
2019-01-26T14:29:09.150Z,6.27
2019-01-26T14:31:37.734Z,7.43
2019-01-26T14:34:06.314Z,7.77
2019-01-26T14:36:34.925Z,7.57
2019-01-26T14:39:07.113Z,7.42
2019-01-26T14:41:35.711Z,6.90
2019-01-26T14:44:04.295Z,7.53
2019-01-26T14:46:32.861Z,6.10
2019-01-26T14:49:02.220Z,6.55
2019-01-26T14:51:30.814Z,9.93
2019-01-26T14:53:59.380Z,7.23
2019-01-26T14:56:28.093Z,9.17
2019-01-26T14:58:56.684Z,7.60
2019-01-26T15:01:25.311Z,6.78
2019-01-26T15:03:53.876Z,6.50
2019-01-26T15:06:22.459Z,6.07
2019-01-26T15:08:51.032Z,5.90
2019-01-26T15:11:20.113Z,5.40
2019-01-26T15:13:49.917Z,5.43
2019-01-26T15:16:18.486Z,6.93
2019-01-26T15:18:48.125Z,6.47
2019-01-26T15:21:16.756Z,5.67
2019-01-26T15:23:45.382Z,5.00
2019-01-26T15:26:14.016Z,5.97
2019-01-26T15:28:48.662Z,7.12
2019-01-26T15:31:17.249Z,6.57
2019-01-26T15:33:45.809Z,5.97
2019-01-26T15:36:14.380Z,6.00
2019-01-26T15:38:42.946Z,5.35
2019-01-26T15:41:11.517Z,6.60
2019-01-26T15:43:40.077Z,7.28
2019-01-26T15:46:08.654Z,7.23
2019-01-26T15:48:37.229Z,8.37
2019-01-26T15:51:05.806Z,9.07
2019-01-26T15:53:34.393Z,8.83
2019-01-26T15:56:02.958Z,11.03
2019-01-26T15:58:31.534Z,10.93
2019-01-26T16:01:00.178Z,9.78
2019-01-26T16:03:30.067Z,16.17
2019-01-26T16:05:59.878Z,16.40
2019-01-26T16:08:28.506Z,14.87
2019-01-26T16:10:57.169Z,11.17
2019-01-26T16:13:25.828Z,11.37
2019-01-26T16:15:54.467Z,10.97
2019-01-26T16:18:23.187Z,12.33
2019-01-26T16:20:51.756Z,11.07
2019-01-26T16:23:20.879Z,12.18
2019-01-26T16:25:51.741Z,11.47
2019-01-26T16:28:22.773Z,10.63
2019-01-26T16:30:51.401Z,11.63
2019-01-26T16:33:20.860Z,12.88
2019-01-26T16:35:51.811Z,12.83
2019-01-26T16:38:20.778Z,11.47
2019-01-26T16:40:51.989Z,13.50
2019-01-26T16:43:21.206Z,11.63
2019-01-26T16:45:50.046Z,12.10
2019-01-26T16:48:18.990Z,13.10
2019-01-26T16:50:50.296Z,11.65
2019-01-26T16:53:20.879Z,11.37
2019-01-26T16:55:49.992Z,12.20
2019-01-26T16:58:18.979Z,11.47
2019-01-26T17:00:50.002Z,12.05
2019-01-26T17:03:18.914Z,11.45
2019-01-26T17:05:48.147Z,11.87
2019-01-26T17:08:20.276Z,13.63
2019-01-26T17:10:50.869Z,11.25
2019-01-26T17:13:20.118Z,11.60
2019-01-26T17:15:49.177Z,13.00
2019-01-26T17:18:18.014Z,13.43
2019-01-26T17:20:46.825Z,12.30
2019-01-26T17:23:15.557Z,10.10
2019-01-26T17:25:44.252Z,10.30
2019-01-26T17:28:13.189Z,9.47
2019-01-26T17:30:44.065Z,11.30
2019-01-26T17:33:12.834Z,10.63
2019-01-26T17:35:43.321Z,11.17
2019-01-26T17:38:20.297Z,10.87
2019-01-26T17:40:54.320Z,10.73
2019-01-26T17:43:19.706Z,12.80
2019-01-26T17:45:48.714Z,10.43
2019-01-26T17:48:18.246Z,24.63
2019-01-26T17:50:47.453Z,9.87
2019-01-26T17:53:16.163Z,9.77
2019-01-26T17:55:44.909Z,10.23
2019-01-26T17:58:13.646Z,9.67
2019-01-26T18:00:55.826Z,11.17
2019-01-26T18:03:24.657Z,10.23
2019-01-26T18:05:53.209Z,8.63
2019-01-26T18:08:21.793Z,8.00
2019-01-26T18:10:50.362Z,8.17
2019-01-26T18:13:18.939Z,8.43
2019-01-26T18:15:47.659Z,10.50
2019-01-26T18:18:16.258Z,9.03
2019-01-26T18:20:49.099Z,11.27
2019-01-26T18:23:17.095Z,10.67
2019-01-26T18:25:45.763Z,11.17
2019-01-26T18:28:14.354Z,18.60
2019-01-26T18:30:42.945Z,12.70
2019-01-26T18:33:11.645Z,10.60
2019-01-26T18:35:40.258Z,12.50
2019-01-26T18:38:09.151Z,11.80
2019-01-26T18:40:38.840Z,11.93
2019-01-26T18:43:07.401Z,11.20
2019-01-26T18:45:36.218Z,11.87
2019-01-26T18:48:05.269Z,12.17
2019-01-26T18:50:35.701Z,12.10
2019-01-26T18:53:05.578Z,12.90
2019-01-26T18:55:34.218Z,12.13
2019-01-26T18:58:02.795Z,12.63
2019-01-26T19:00:34.147Z,12.30
2019-01-26T19:03:24.770Z,13.93
2019-01-26T19:05:54.992Z,12.73
2019-01-26T19:08:23.557Z,12.68
2019-01-26T19:10:52.168Z,13.00
2019-01-26T19:13:21.085Z,12.43
2019-01-26T19:15:51.176Z,14.30
2019-01-26T19:18:19.834Z,13.53
2019-01-26T19:20:48.477Z,14.87
2019-01-26T19:23:17.082Z,14.70
2019-01-26T19:25:45.674Z,12.80
2019-01-26T19:28:14.270Z,15.47
2019-01-26T19:30:42.849Z,14.43
2019-01-26T19:33:11.416Z,13.07
2019-01-26T19:35:40.002Z,15.30
2019-01-26T19:38:08.586Z,13.80
2019-01-26T19:40:38.625Z,30.13
2019-01-26T19:43:07.229Z,17.70
2019-01-26T19:45:35.806Z,16.53
2019-01-26T19:48:04.506Z,17.83
2019-01-26T19:50:33.104Z,12.63
2019-01-26T19:53:01.697Z,13.50
2019-01-26T19:55:30.257Z,13.07
2019-01-26T19:57:58.842Z,11.78
2019-01-26T20:00:27.476Z,11.67
2019-01-26T20:02:56.078Z,13.10
2019-01-26T20:05:24.668Z,12.93
2019-01-26T20:07:53.264Z,15.40
2019-01-26T20:10:21.824Z,11.70
2019-01-26T20:12:50.409Z,14.03
2019-01-26T20:15:19.759Z,12.43
2019-01-26T20:17:48.326Z,12.53
2019-01-26T20:20:19.674Z,12.58
2019-01-26T20:22:48.282Z,12.23
2019-01-26T20:25:16.894Z,11.80
2019-01-26T20:27:45.518Z,13.53
2019-01-26T20:30:20.192Z,11.13
2019-01-26T20:32:49.325Z,9.00
2019-01-26T20:35:17.904Z,10.40
2019-01-26T20:37:46.490Z,12.27
2019-01-26T20:40:16.156Z,12.00
2019-01-26T20:42:45.284Z,10.18
2019-01-26T20:45:19.546Z,8.87
2019-01-26T20:47:48.509Z,10.23
2019-01-26T20:50:17.391Z,10.87
2019-01-26T20:52:46.172Z,10.72
2019-01-26T20:55:15.056Z,7.70
2019-01-26T20:57:43.842Z,9.77
2019-01-26T21:00:21.874Z,9.13
2019-01-26T21:02:50.833Z,9.38
2019-01-26T21:05:20.218Z,10.77
2019-01-26T21:07:52.172Z,8.77
2019-01-26T21:10:26.559Z,10.47
2019-01-26T21:12:55.766Z,10.38
2019-01-26T21:15:24.914Z,8.37
2019-01-26T21:17:53.768Z,9.00
2019-01-26T21:20:23.568Z,8.23
2019-01-26T21:22:56.704Z,8.50
2019-01-26T21:25:25.050Z,8.93
2019-01-26T21:27:53.726Z,8.97
2019-01-26T21:30:24.265Z,10.03
2019-01-26T21:32:52.975Z,9.70
2019-01-26T21:35:22.668Z,10.10
2019-01-26T21:37:51.650Z,9.83
2019-01-26T21:40:22.314Z,11.78
2019-01-26T21:42:51.125Z,8.13
2019-01-26T21:45:21.755Z,9.25
2019-01-26T21:47:50.743Z,11.20
2019-01-26T21:50:21.906Z,9.70
2019-01-26T21:52:50.640Z,9.90
2019-01-26T21:55:19.436Z,10.65
2019-01-26T21:57:48.584Z,9.23
2019-01-26T22:00:24.563Z,10.50
2019-01-26T22:02:54.473Z,10.80
2019-01-26T22:05:23.122Z,12.05
2019-01-26T22:07:51.772Z,9.43
2019-01-26T22:10:22.230Z,9.10
2019-01-26T22:12:51.198Z,9.80
2019-01-26T22:15:22.747Z,11.43
2019-01-26T22:17:51.518Z,10.10
2019-01-26T22:20:22.183Z,7.73
2019-01-26T22:22:50.828Z,9.43
2019-01-26T22:25:20.218Z,8.50
2019-01-26T22:28:18.721Z,7.67
2019-01-26T22:31:46.274Z,9.73
2019-01-26T22:36:18.955Z,10.13
2019-01-26T22:37:35.894Z,11.43
2019-01-26T22:40:13.913Z,9.13
2019-01-26T22:50:27.411Z,8.10
2019-01-26T22:56:30.902Z,17.17
2019-01-26T23:03:39.740Z,7.00
2019-01-26T23:26:32.067Z,6.73
2019-01-26T23:29:53.293Z,6.70
2019-01-26T23:32:50.707Z,7.70
2019-01-26T23:35:19.281Z,6.83
2019-01-26T23:37:48.158Z,5.40
2019-01-26T23:40:16.735Z,6.33
2019-01-26T23:42:45.313Z,5.40
2019-01-26T23:45:13.922Z,6.07
2019-01-26T23:47:44.352Z,5.50
2019-01-26T23:50:12.944Z,5.35
2019-01-26T23:52:41.495Z,7.60
2019-01-26T23:55:10.109Z,5.37
2019-01-26T23:57:38.675Z,5.37
